Time;durP1;ratioP1;P1;durP2;ratioP2;P2;SDS_P1;SDS_P2;PMS_P1;PMS_P2;Temp;Humidity;BMP_temperature;BMP_pressure;BME280_temperature;BME280_humidity;BME280_pressure;Samples;Min_cycle;Max_cycle;Signal;HPM_P1;HPM_P2
2023/09/19 00:00:23;;;;;;;2.33;0.50;;;15.70;99.90;;;;;;5040007;28;20427;-66
2023/09/19 00:02:59;;;;;;;3.53;0.68;;;15.70;99.90;;;;;;5039849;28;20133;-65
2023/09/19 00:05:27;;;;;;;2.53;0.60;;;15.70;99.90;;;;;;5039989;28;20021;-65
2023/09/19 00:07:58;;;;;;;2.55;0.70;;;15.70;99.90;;;;;;5039855;28;20025;-66
2023/09/19 00:10:30;;;;;;;1.50;0.50;;;15.60;99.90;;;;;;5038457;28;20053;-66
2023/09/19 00:12:58;;;;;;;5.05;0.68;;;15.60;99.90;;;;;;5039136;28;20471;-66
2023/09/19 00:15:24;;;;;;;1.90;0.70;;;15.60;99.90;;;;;;5040111;28;20124;-66
2023/09/19 00:17:52;;;;;;;3.03;0.68;;;15.60;99.90;;;;;;5037332;28;20025;-66
2023/09/19 00:20:18;;;;;;;1.77;0.75;;;15.50;99.90;;;;;;5039953;28;20029;-66
2023/09/19 00:22:44;;;;;;;3.47;0.68;;;15.60;99.90;;;;;;5039383;28;20030;-66
2023/09/19 00:25:11;;;;;;;2.63;0.63;;;15.60;99.90;;;;;;5038357;28;20029;-66
2023/09/19 00:27:42;;;;;;;3.63;0.77;;;15.60;99.90;;;;;;5039421;28;20017;-66
2023/09/19 00:30:14;;;;;;;2.88;0.70;;;15.60;99.90;;;;;;5039403;28;20061;-66
2023/09/19 00:32:40;;;;;;;4.55;0.70;;;15.60;99.90;;;;;;5037553;28;20026;-66
2023/09/19 00:35:09;;;;;;;4.80;1.00;;;15.60;99.90;;;;;;5039454;28;20524;-66
2023/09/19 00:37:34;;;;;;;2.47;0.65;;;15.60;99.90;;;;;;5034414;28;20548;-65
2023/09/19 00:40:00;;;;;;;1.92;0.57;;;15.50;99.90;;;;;;5037412;28;20029;-66
2023/09/19 00:42:25;;;;;;;3.13;0.70;;;15.50;99.90;;;;;;5038112;28;20053;-66
2023/09/19 00:44:51;;;;;;;2.17;0.70;;;15.50;99.90;;;;;;5039096;28;20017;-65
2023/09/19 00:47:18;;;;;;;3.35;0.70;;;15.50;99.90;;;;;;5038763;28;20018;-64
2023/09/19 00:49:50;;;;;;;2.20;0.60;;;15.50;99.90;;;;;;5039094;28;20033;-64
2023/09/19 00:52:19;;;;;;;3.72;0.90;;;15.50;99.90;;;;;;5048755;28;20046;-65
2023/09/19 00:54:46;;;;;;;3.25;0.57;;;15.50;99.90;;;;;;5039051;28;20029;-65
2023/09/19 00:57:11;;;;;;;4.78;0.90;;;15.50;99.90;;;;;;5038868;28;20072;-65
2023/09/19 00:59:37;;;;;;;2.78;0.80;;;15.40;99.90;;;;;;5038987;28;20104;-65
2023/09/19 01:02:03;;;;;;;2.67;0.60;;;15.50;99.90;;;;;;5038321;28;20026;-64
2023/09/19 01:04:30;;;;;;;4.28;0.82;;;15.40;99.90;;;;;;5028671;28;20149;-65
2023/09/19 01:06:57;;;;;;;4.20;0.80;;;15.40;99.90;;;;;;5038701;28;20498;-64
2023/09/19 01:09:23;;;;;;;2.72;0.70;;;15.40;99.90;;;;;;5022600;28;20041;-65
2023/09/19 01:11:52;;;;;;;5.13;0.93;;;15.40;99.90;;;;;;5025772;28;20496;-65
2023/09/19 01:14:35;;;;;;;3.00;0.70;;;15.40;99.90;;;;;;5038693;28;20025;-65
2023/09/19 01:17:06;;;;;;;2.95;0.80;;;15.40;99.90;;;;;;5038913;28;20529;-65
2023/09/19 01:19:59;;;;;;;2.33;0.70;;;15.30;99.90;;;;;;5026536;28;20028;-65
2023/09/19 01:22:45;;;;;;;3.25;0.98;;;15.30;99.90;;;;;;5038615;28;20025;-66
2023/09/19 01:25:51;;;;;;;4.07;0.70;;;15.30;99.90;;;;;;5038635;28;20033;-66
2023/09/19 01:28:38;;;;;;;4.00;0.90;;;15.30;99.90;;;;;;5028910;28;20385;-65
2023/09/19 01:31:09;;;;;;;2.92;0.80;;;15.30;99.90;;;;;;5038148;28;20021;-66
2023/09/19 01:33:59;;;;;;;2.95;0.65;;;15.30;99.90;;;;;;5038156;28;20025;-66
2023/09/19 01:36:29;;;;;;;4.93;1.00;;;15.30;99.90;;;;;;5028876;28;20026;-66
2023/09/19 01:38:57;;;;;;;3.08;0.82;;;15.30;99.90;;;;;;5037971;28;20482;-65
2023/09/19 01:41:35;;;;;;;4.85;0.70;;;15.20;99.90;;;;;;5037022;28;20109;-66
2023/09/19 01:44:06;;;;;;;3.28;0.80;;;15.20;99.90;;;;;;5037830;28;20025;-65
2023/09/19 01:46:35;;;;;;;6.38;0.90;;;15.20;99.90;;;;;;5036473;28;20085;-65
2023/09/19 01:49:32;;;;;;;3.67;0.75;;;15.20;99.90;;;;;;5037962;28;20033;-65
2023/09/19 01:52:19;;;;;;;3.35;0.80;;;15.20;99.90;;;;;;5034963;28;20021;-64
2023/09/19 01:54:56;;;;;;;3.70;0.60;;;15.20;99.90;;;;;;5039805;28;20017;-65
2023/09/19 01:57:32;;;;;;;3.05;0.70;;;15.20;99.90;;;;;;5037770;28;20136;-65
2023/09/19 02:00:06;;;;;;;3.40;0.90;;;15.20;99.90;;;;;;5035746;28;20475;-65
2023/09/19 02:02:44;;;;;;;5.72;0.82;;;15.20;99.90;;;;;;5037570;28;20048;-65
2023/09/19 02:05:10;;;;;;;5.00;0.70;;;15.20;99.90;;;;;;5037921;28;20044;-66
2023/09/19 02:07:37;;;;;;;3.58;0.90;;;15.20;99.90;;;;;;5036376;28;20469;-66
2023/09/19 02:10:07;;;;;;;4.47;0.80;;;15.20;99.90;;;;;;5037591;28;20603;-66
2023/09/19 02:12:35;;;;;;;1.90;0.52;;;15.20;99.90;;;;;;5037397;28;20067;-65
2023/09/19 02:15:00;;;;;;;2.75;0.80;;;15.20;99.90;;;;;;5035753;28;20029;-65
2023/09/19 02:17:26;;;;;;;3.28;0.70;;;15.20;99.90;;;;;;5037251;28;20084;-66
2023/09/19 02:19:53;;;;;;;4.45;0.90;;;15.20;99.90;;;;;;5028074;28;20524;-66
2023/09/19 02:22:19;;;;;;;3.63;0.70;;;15.20;99.90;;;;;;5037121;28;20101;-66
2023/09/19 02:24:45;;;;;;;4.53;0.90;;;15.20;99.90;;;;;;5037587;28;20049;-65
2023/09/19 02:27:14;;;;;;;3.90;0.80;;;15.30;99.90;;;;;;5035062;28;20386;-65
2023/09/19 02:29:40;;;;;;;2.40;0.68;;;15.30;99.90;;;;;;5037643;28;20390;-65
2023/09/19 02:32:06;;;;;;;4.60;0.80;;;15.20;99.90;;;;;;5037063;28;20026;-65
2023/09/19 02:34:32;;;;;;;4.45;0.90;;;15.20;99.90;;;;;;5037276;28;20478;-65
2023/09/19 02:36:58;;;;;;;3.90;0.63;;;15.20;99.90;;;;;;5036471;28;20030;-65
2023/09/19 02:39:23;;;;;;;3.25;0.73;;;15.20;99.90;;;;;;5037460;28;20116;-65
2023/09/19 02:41:49;;;;;;;2.80;0.60;;;15.20;99.90;;;;;;5036891;28;20040;-65
2023/09/19 02:44:15;;;;;;;5.03;0.80;;;15.20;99.90;;;;;;5037181;28;20521;-65
2023/09/19 02:46:42;;;;;;;3.60;0.88;;;15.20;99.90;;;;;;5036934;28;20018;-65
2023/09/19 02:49:07;;;;;;;4.60;0.73;;;15.20;99.90;;;;;;5036817;28;20017;-65
2023/09/19 02:51:34;;;;;;;3.75;1.10;;;15.10;99.90;;;;;;5036954;28;20025;-64
2023/09/19 02:54:00;;;;;;;3.83;0.65;;;15.10;99.90;;;;;;5037114;28;20044;-65
2023/09/19 02:56:26;;;;;;;3.25;1.00;;;15.10;99.90;;;;;;5038574;28;20038;-65
2023/09/19 02:58:52;;;;;;;3.88;0.70;;;15.10;99.90;;;;;;5037109;28;20040;-65
2023/09/19 03:01:18;;;;;;;4.18;0.82;;;15.10;99.90;;;;;;5036686;28;20478;-65
2023/09/19 03:03:44;;;;;;;4.35;0.77;;;15.10;99.90;;;;;;5036726;28;20533;-65
2023/09/19 03:06:13;;;;;;;3.00;0.80;;;15.00;99.90;;;;;;5036714;28;20049;-65
2023/09/19 03:08:39;;;;;;;2.47;0.77;;;15.00;99.90;;;;;;5037041;28;20084;-65
2023/09/19 03:11:11;;;;;;;3.47;0.75;;;15.00;99.90;;;;;;5036705;28;20053;-65
2023/09/19 03:13:38;;;;;;;3.65;0.90;;;15.00;99.90;;;;;;5037084;28;20033;-65
2023/09/19 03:16:05;;;;;;;3.58;0.70;;;15.00;99.90;;;;;;5036637;28;20030;-65
2023/09/19 03:18:33;;;;;;;4.90;0.85;;;15.00;99.90;;;;;;5028262;28;20099;-64
2023/09/19 03:21:02;;;;;;;3.17;0.75;;;15.00;99.90;;;;;;5035893;28;20025;-64
2023/09/19 03:23:28;;;;;;;6.20;0.98;;;15.00;99.90;;;;;;5035141;28;20021;-64
2023/09/19 03:25:55;;;;;;;2.83;0.70;;;15.00;99.90;;;;;;5038522;28;20041;-64
2023/09/19 03:28:21;;;;;;;4.70;0.90;;;15.00;99.90;;;;;;5039534;28;20080;-65
2023/09/19 03:31:06;;;;;;;3.58;0.70;;;15.00;99.90;;;;;;5040667;28;20014;-64
2023/09/19 03:33:33;;;;;;;4.35;1.05;;;15.00;99.90;;;;;;5038989;28;20044;-64
2023/09/19 03:36:00;;;;;;;3.55;0.77;;;15.00;99.90;;;;;;5040676;28;20391;-66
2023/09/19 03:38:29;;;;;;;5.55;0.90;;;15.00;99.90;;;;;;5040425;28;20084;-64
2023/09/19 03:40:55;;;;;;;3.35;0.82;;;15.00;99.90;;;;;;5040494;28;20045;-64
2023/09/19 03:43:20;;;;;;;5.22;1.02;;;14.90;99.90;;;;;;5040221;28;20025;-66
2023/09/19 03:45:50;;;;;;;4.25;0.75;;;14.90;99.90;;;;;;5040507;28;20028;-64
2023/09/19 03:48:16;;;;;;;4.13;0.80;;;14.90;99.90;;;;;;5040079;28;20017;-64
2023/09/19 03:50:43;;;;;;;4.22;1.20;;;14.80;99.90;;;;;;5040454;28;20031;-65
2023/09/19 03:53:09;;;;;;;5.25;1.00;;;14.80;99.90;;;;;;5040022;28;20111;-64
2023/09/19 03:55:35;;;;;;;5.18;1.00;;;14.80;99.90;;;;;;5043071;28;20453;-64
2023/09/19 03:58:01;;;;;;;3.05;0.90;;;14.80;99.90;;;;;;5039791;28;20045;-65
2023/09/19 04:00:29;;;;;;;3.45;1.10;;;14.80;99.90;;;;;;5040138;28;20033;-65
2023/09/19 04:02:56;;;;;;;5.05;1.10;;;14.80;99.90;;;;;;5039444;28;20028;-65
2023/09/19 04:05:22;;;;;;;4.40;0.95;;;14.80;99.90;;;;;;5040346;28;20017;-65
2023/09/19 04:07:48;;;;;;;3.65;0.98;;;14.80;99.90;;;;;;5039331;28;20559;-65
2023/09/19 04:10:14;;;;;;;4.28;0.82;;;14.90;99.90;;;;;;5040137;28;20108;-65
2023/09/19 04:12:40;;;;;;;6.60;1.05;;;14.90;99.90;;;;;;5039784;28;20032;-65
2023/09/19 04:15:07;;;;;;;4.78;0.90;;;15.00;99.90;;;;;;5040152;28;20056;-65
2023/09/19 04:17:33;;;;;;;3.35;1.00;;;15.00;99.90;;;;;;5039011;28;20029;-65
2023/09/19 04:19:59;;;;;;;3.70;1.05;;;15.00;99.90;;;;;;5030939;28;20021;-65
2023/09/19 04:22:25;;;;;;;4.10;0.85;;;15.00;99.90;;;;;;5039393;28;20068;-65
2023/09/19 04:24:50;;;;;;;5.22;1.08;;;15.00;99.90;;;;;;5039588;28;20017;-64
2023/09/19 04:27:16;;;;;;;3.15;0.80;;;14.90;99.90;;;;;;5039540;28;20021;-64
2023/09/19 04:29:42;;;;;;;4.75;0.90;;;14.90;99.90;;;;;;5038299;28;20022;-65
2023/09/19 04:32:09;;;;;;;2.97;0.70;;;14.90;99.90;;;;;;5039306;28;20033;-64
2023/09/19 04:34:35;;;;;;;3.50;0.80;;;14.90;99.90;;;;;;5039195;28;20104;-65
2023/09/19 04:37:02;;;;;;;7.32;1.20;;;14.90;99.90;;;;;;5038312;28;20075;-64
2023/09/19 04:39:28;;;;;;;4.82;1.00;;;14.90;99.90;;;;;;5039489;28;20026;-64
2023/09/19 04:41:54;;;;;;;4.03;0.90;;;14.90;99.90;;;;;;5039100;28;20084;-65
2023/09/19 04:44:21;;;;;;;4.90;0.95;;;14.90;99.90;;;;;;5039473;28;20025;-65
2023/09/19 04:46:47;;;;;;;3.85;0.80;;;14.90;99.90;;;;;;5037718;28;20025;-64
2023/09/19 04:49:13;;;;;;;2.70;0.82;;;14.90;99.90;;;;;;5038961;28;20014;-64
2023/09/19 04:51:40;;;;;;;4.70;1.00;;;14.80;99.90;;;;;;5039088;28;20028;-65
2023/09/19 04:54:06;;;;;;;2.50;0.80;;;14.80;99.90;;;;;;5040205;28;20363;-64
2023/09/19 04:56:32;;;;;;;5.28;0.80;;;14.80;99.90;;;;;;5040281;28;20053;-64
2023/09/19 04:58:58;;;;;;;2.70;0.70;;;14.80;99.90;;;;;;5039241;28;20022;-64
2023/09/19 05:01:24;;;;;;;3.33;0.80;;;14.80;99.90;;;;;;5032206;28;21305;-66
2023/09/19 05:03:53;;;;;;;5.93;1.05;;;14.80;99.90;;;;;;5038228;28;20445;-65
2023/09/19 05:06:22;;;;;;;3.25;1.10;;;14.80;99.90;;;;;;5038908;28;20029;-65
2023/09/19 05:08:52;;;;;;;5.00;1.30;;;14.80;99.90;;;;;;5038661;28;20375;-65
2023/09/19 05:11:21;;;;;;;3.00;0.77;;;14.70;99.90;;;;;;5038668;28;20018;-66
2023/09/19 05:13:47;;;;;;;2.30;0.60;;;14.80;99.90;;;;;;5038404;28;20018;-65
2023/09/19 05:16:13;;;;;;;4.38;1.00;;;14.80;99.90;;;;;;5036917;28;20029;-65
2023/09/19 05:18:39;;;;;;;6.43;1.15;;;14.70;99.90;;;;;;5029135;28;20033;-65
2023/09/19 05:21:05;;;;;;;5.03;0.90;;;14.70;99.90;;;;;;5035878;28;20391;-65
2023/09/19 05:23:31;;;;;;;4.85;0.75;;;14.70;99.90;;;;;;5038586;28;20036;-65
2023/09/19 05:25:58;;;;;;;3.10;0.98;;;14.70;99.90;;;;;;5035671;28;20026;-65
2023/09/19 05:28:24;;;;;;;2.15;0.80;;;14.70;99.90;;;;;;5037713;28;20017;-65
2023/09/19 05:30:49;;;;;;;5.22;1.02;;;14.70;99.90;;;;;;5027501;28;20083;-65
2023/09/19 05:33:15;;;;;;;4.38;0.90;;;14.70;99.90;;;;;;5035900;28;20060;-66
2023/09/19 05:35:41;;;;;;;6.97;1.10;;;14.70;99.90;;;;;;5037210;28;20036;-67
2023/09/19 05:38:12;;;;;;;4.15;1.08;;;14.60;99.90;;;;;;5037337;28;20025;-65
2023/09/19 05:40:40;;;;;;;3.35;0.88;;;14.60;99.90;;;;;;5034602;28;20394;-65
2023/09/19 05:43:06;;;;;;;5.85;1.25;;;14.60;99.90;;;;;;5036553;28;20033;-66
2023/09/19 05:45:32;;;;;;;4.47;1.15;;;14.60;99.90;;;;;;5033923;28;20025;-65
2023/09/19 05:48:11;;;;;;;5.35;0.85;;;14.60;99.90;;;;;;5037083;28;20041;-65
2023/09/19 05:50:38;;;;;;;6.57;1.25;;;14.60;99.90;;;;;;5035148;28;20108;-65
2023/09/19 05:53:07;;;;;;;3.00;1.00;;;14.70;99.90;;;;;;5033434;28;20112;-65
2023/09/19 05:55:33;;;;;;;4.82;0.90;;;14.70;99.90;;;;;;5035832;28;20025;-65
2023/09/19 05:57:58;;;;;;;4.43;0.93;;;14.70;99.90;;;;;;5036946;28;20038;-66
2023/09/19 06:00:27;;;;;;;2.97;0.75;;;14.70;99.90;;;;;;5036466;28;20021;-66
2023/09/19 06:02:53;;;;;;;3.35;0.80;;;14.70;99.90;;;;;;5035996;28;20037;-66
2023/09/19 06:05:20;;;;;;;3.83;0.77;;;14.70;99.90;;;;;;5034950;28;20033;-65
2023/09/19 06:07:46;;;;;;;3.45;1.08;;;14.70;99.90;;;;;;5037237;28;20100;-66
2023/09/19 06:10:12;;;;;;;4.68;0.98;;;14.70;99.90;;;;;;5037162;28;20021;-67
2023/09/19 06:12:39;;;;;;;3.72;1.20;;;14.70;99.90;;;;;;5037515;28;20028;-66
2023/09/19 06:15:06;;;;;;;3.15;0.73;;;14.70;99.90;;;;;;5027330;28;20037;-66
2023/09/19 06:17:31;;;;;;;5.05;1.10;;;14.70;99.90;;;;;;5030058;28;20121;-66
2023/09/19 06:19:57;;;;;;;4.70;1.05;;;14.80;99.90;;;;;;5026244;28;20021;-66
2023/09/19 06:22:24;;;;;;;5.13;0.80;;;14.80;99.90;;;;;;5027846;28;20025;-66
2023/09/19 06:24:50;;;;;;;4.00;0.95;;;14.80;99.90;;;;;;5028981;28;20029;-66
2023/09/19 06:27:15;;;;;;;3.80;0.77;;;14.80;99.90;;;;;;5029736;28;20071;-66
2023/09/19 06:29:41;;;;;;;4.57;1.02;;;14.80;99.90;;;;;;5029234;28;20021;-66
2023/09/19 06:32:11;;;;;;;3.85;1.00;;;14.90;99.90;;;;;;5029086;28;20037;-66
2023/09/19 06:34:43;;;;;;;2.50;0.88;;;14.90;99.90;;;;;;5026381;28;20025;-66
2023/09/19 06:37:09;;;;;;;5.40;0.90;;;14.90;99.90;;;;;;5028215;28;20526;-67
2023/09/19 06:39:34;;;;;;;4.93;1.05;;;14.90;99.90;;;;;;5031533;28;20033;-66
2023/09/19 06:42:01;;;;;;;4.97;0.90;;;14.90;99.90;;;;;;5016488;28;21080;-66
2023/09/19 06:44:29;;;;;;;6.25;1.10;;;14.90;99.90;;;;;;5024269;28;20036;-67
2023/09/19 06:46:55;;;;;;;6.00;1.10;;;14.90;99.90;;;;;;5032715;28;20018;-67
2023/09/19 06:49:20;;;;;;;3.28;0.88;;;14.90;99.90;;;;;;5027392;28;20036;-66
2023/09/19 06:51:46;;;;;;;4.75;0.90;;;15.00;99.90;;;;;;5021036;28;20029;-66
2023/09/19 06:54:12;;;;;;;5.32;1.05;;;15.10;99.90;;;;;;5024927;28;20029;-66
2023/09/19 06:56:37;;;;;;;4.75;1.20;;;15.10;99.90;;;;;;5026056;28;20029;-66
2023/09/19 06:59:05;;;;;;;3.80;1.00;;;15.20;99.90;;;;;;5025557;28;20033;-66
2023/09/19 07:01:32;;;;;;;4.15;1.17;;;15.30;99.90;;;;;;5021902;28;20013;-66
2023/09/19 07:03:57;;;;;;;4.80;1.05;;;15.30;99.90;;;;;;5029429;28;20805;-66
2023/09/19 07:06:24;;;;;;;5.75;1.20;;;15.40;99.90;;;;;;5027443;28;20053;-65
2023/09/19 07:08:50;;;;;;;5.97;1.60;;;15.50;99.90;;;;;;5023929;28;20493;-66
2023/09/19 07:11:15;;;;;;;5.78;1.40;;;15.50;99.90;;;;;;5026048;28;20052;-66
2023/09/19 07:13:41;;;;;;;5.63;1.60;;;15.60;99.90;;;;;;5026313;28;20030;-65
2023/09/19 07:16:10;;;;;;;6.28;1.75;;;15.60;99.90;;;;;;5031571;28;20448;-66
2023/09/19 07:18:36;;;;;;;5.32;1.50;;;15.60;99.90;;;;;;5031122;28;20025;-64
2023/09/19 07:21:04;;;;;;;6.68;1.23;;;15.60;99.90;;;;;;5027532;28;20093;-64
2023/09/19 07:23:34;;;;;;;2.80;1.00;;;15.60;99.90;;;;;;5028341;28;20037;-65
2023/09/19 07:26:05;;;;;;;4.85;1.08;;;15.60;99.90;;;;;;5026497;28;20033;-64
2023/09/19 07:28:31;;;;;;;4.13;1.23;;;15.60;99.90;;;;;;5032394;28;20056;-64
2023/09/19 07:30:57;;;;;;;5.28;0.98;;;15.60;99.90;;;;;;5030083;28;20025;-67
2023/09/19 07:33:24;;;;;;;5.80;1.08;;;15.70;99.90;;;;;;5030243;28;20370;-67
2023/09/19 07:35:50;;;;;;;4.45;0.90;;;15.80;99.90;;;;;;5031626;28;20032;-67
2023/09/19 07:38:16;;;;;;;7.18;1.55;;;15.90;99.90;;;;;;5028421;28;20144;-66
2023/09/19 07:40:42;;;;;;;6.57;1.10;;;16.00;99.90;;;;;;5025226;28;20013;-68
2023/09/19 07:43:08;;;;;;;3.28;1.00;;;16.10;99.90;;;;;;5031717;28;20030;-64
2023/09/19 07:45:34;;;;;;;5.75;1.20;;;16.30;99.90;;;;;;5035181;28;20032;-68
2023/09/19 07:48:03;;;;;;;4.60;1.02;;;16.40;99.90;;;;;;5034739;28;20474;-69
2023/09/19 07:50:29;;;;;;;3.47;1.20;;;16.50;99.90;;;;;;5029792;28;20020;-69
2023/09/19 07:52:56;;;;;;;5.75;1.10;;;16.50;99.90;;;;;;5034393;28;20033;-68
2023/09/19 07:55:25;;;;;;;7.28;1.08;;;16.60;99.90;;;;;;5030547;28;20316;-69
2023/09/19 07:57:54;;;;;;;4.80;1.00;;;16.60;99.90;;;;;;5035211;28;20139;-68
2023/09/19 08:00:20;;;;;;;3.47;0.82;;;16.60;99.90;;;;;;5031680;28;20111;-64
2023/09/19 08:02:45;;;;;;;6.97;0.80;;;16.70;99.90;;;;;;5037285;28;20397;-64
2023/09/19 08:05:15;;;;;;;4.05;0.93;;;16.80;99.90;;;;;;5042144;28;20486;-73
2023/09/19 08:07:43;;;;;;;4.13;0.90;;;16.80;99.90;;;;;;5025225;28;20109;-76
2023/09/19 08:10:13;;;;;;;5.65;0.90;;;16.90;99.90;;;;;;5033548;28;20024;-73
2023/09/19 08:12:46;;;;;;;4.70;1.20;;;17.00;99.90;;;;;;5025956;28;20037;-74
2023/09/19 08:15:19;;;;;;;2.45;0.70;;;17.00;99.90;;;;;;5039613;28;20380;-73
2023/09/19 08:17:44;;;;;;;4.22;0.88;;;17.20;99.90;;;;;;5038114;28;20069;-76
2023/09/19 08:20:16;;;;;;;3.70;1.00;;;17.20;99.90;;;;;;5029350;28;20029;-73
2023/09/19 08:22:54;;;;;;;6.70;1.02;;;17.30;99.90;;;;;;5033538;28;20075;-73
2023/09/19 08:25:21;;;;;;;4.28;1.02;;;17.30;99.90;;;;;;5039115;28;20017;-73
2023/09/19 08:27:48;;;;;;;3.10;1.00;;;17.40;99.90;;;;;;5034733;28;20033;-73
2023/09/19 08:30:15;;;;;;;4.43;0.85;;;17.40;99.90;;;;;;5021430;28;20053;-76
2023/09/19 08:32:42;;;;;;;2.60;1.00;;;17.50;99.90;;;;;;5036287;28;20064;-75
2023/09/19 08:35:09;;;;;;;4.63;1.08;;;17.50;99.90;;;;;;5038185;28;20026;-76
2023/09/19 08:37:35;;;;;;;5.57;1.00;;;17.60;99.90;;;;;;5034508;28;20057;-72
2023/09/19 08:40:01;;;;;;;5.45;1.25;;;17.60;99.90;;;;;;5037143;28;20502;-74
2023/09/19 08:42:27;;;;;;;4.95;1.10;;;17.70;99.90;;;;;;5029935;28;20109;-75
2023/09/19 08:44:55;;;;;;;5.93;1.17;;;17.80;99.90;;;;;;5035909;28;20025;-74
2023/09/19 08:47:33;;;;;;;6.07;1.10;;;17.80;99.90;;;;;;5038704;28;20025;-75
2023/09/19 08:50:18;;;;;;;5.28;1.15;;;17.80;99.90;;;;;;5030592;28;20083;-73
2023/09/19 08:52:49;;;;;;;7.13;1.20;;;17.90;99.90;;;;;;5030911;28;20037;-75
2023/09/19 08:55:20;;;;;;;5.50;1.23;;;17.90;99.90;;;;;;5037720;28;20033;-74
2023/09/19 08:57:49;;;;;;;3.63;1.15;;;17.90;99.90;;;;;;5038258;28;20081;-74
2023/09/19 09:00:20;;;;;;;6.00;1.35;;;17.90;99.90;;;;;;5033008;28;20033;-74
2023/09/19 09:02:47;;;;;;;4.43;1.02;;;18.00;99.90;;;;;;5036445;28;20028;-74
2023/09/19 09:05:15;;;;;;;3.88;0.82;;;18.00;99.90;;;;;;5029762;28;20085;-74
2023/09/19 09:07:42;;;;;;;5.10;1.20;;;18.10;99.90;;;;;;5036634;28;20490;-73
2023/09/19 09:10:08;;;;;;;5.45;1.20;;;18.30;99.90;;;;;;5039784;28;20474;-75
2023/09/19 09:12:36;;;;;;;5.05;1.00;;;18.30;99.90;;;;;;5036261;28;20083;-75
2023/09/19 09:15:03;;;;;;;7.40;1.40;;;18.40;99.90;;;;;;5032278;28;20041;-74
2023/09/19 09:17:30;;;;;;;5.85;1.10;;;18.50;99.90;;;;;;5035035;28;20053;-74
2023/09/19 09:19:56;;;;;;;5.25;1.30;;;18.70;99.90;;;;;;5031984;28;20079;-67
2023/09/19 09:22:21;;;;;;;4.28;1.02;;;18.70;99.90;;;;;;5025216;28;20061;-67
2023/09/19 09:24:57;;;;;;;5.55;1.30;;;18.70;99.90;;;;;;5034636;28;20029;-66
2023/09/19 09:27:23;;;;;;;5.60;1.20;;;18.80;99.90;;;;;;5028214;28;20018;-67
2023/09/19 09:29:50;;;;;;;3.40;1.15;;;18.90;99.90;;;;;;5030366;28;20108;-68
2023/09/19 09:32:23;;;;;;;7.40;1.45;;;18.90;99.90;;;;;;5033502;28;20037;-67
2023/09/19 09:34:53;;;;;;;4.88;1.13;;;18.90;99.90;;;;;;5032257;28;20064;-66
2023/09/19 09:37:22;;;;;;;5.78;1.33;;;19.10;99.90;;;;;;5024783;28;20037;-67
2023/09/19 09:39:51;;;;;;;7.72;1.33;;;19.20;99.90;;;;;;5033299;28;20025;-70
2023/09/19 09:42:39;;;;;;;5.13;1.23;;;19.40;99.90;;;;;;5028462;28;20056;-65
2023/09/19 09:45:57;;;;;;;6.25;1.50;;;19.30;99.90;;;;;;5022741;28;20029;-65
2023/09/19 09:48:31;;;;;;;6.05;1.40;;;19.30;99.90;;;;;;5034680;28;20506;-65
2023/09/19 09:50:59;;;;;;;3.63;1.13;;;19.20;99.90;;;;;;5031911;28;20105;-71
2023/09/19 09:53:34;;;;;;;3.67;1.10;;;19.30;99.90;;;;;;5035393;28;20021;-68
2023/09/19 09:56:09;;;;;;;4.53;1.30;;;19.40;99.90;;;;;;5038070;28;20037;-70
2023/09/19 09:58:37;;;;;;;5.30;1.38;;;19.40;99.90;;;;;;5028669;28;20440;-67
2023/09/19 10:01:14;;;;;;;4.53;1.63;;;19.60;99.90;;;;;;5028907;28;20037;-67
2023/09/19 10:03:43;;;;;;;5.50;1.40;;;19.70;99.90;;;;;;5026206;28;20113;-68
2023/09/19 10:09:20;;;;;;;6.70;1.75;;;20.00;99.80;;;;;;5024223;28;20108;-68
2023/09/19 10:12:08;;;;;;;7.93;1.77;;;20.00;99.90;;;;;;5025159;28;20056;-68
2023/09/19 10:14:38;;;;;;;6.15;1.73;;;20.10;99.70;;;;;;5034488;28;20497;-68
2023/09/19 10:17:05;;;;;;;5.60;1.15;;;20.10;98.60;;;;;;5027201;28;20057;-69
2023/09/19 10:19:39;;;;;;;5.80;1.60;;;20.10;98.00;;;;;;5029156;28;20042;-68
2023/09/19 10:22:08;;;;;;;7.05;1.60;;;20.20;99.00;;;;;;5026655;28;20422;-69
2023/09/19 10:24:37;;;;;;;3.10;1.25;;;20.30;98.00;;;;;;5031036;28;20037;-69
2023/09/19 10:27:05;;;;;;;6.40;1.38;;;20.40;97.00;;;;;;5036562;28;20517;-64
2023/09/19 10:29:35;;;;;;;4.22;1.10;;;20.40;96.20;;;;;;5030326;28;20037;-63
2023/09/19 10:32:05;;;;;;;5.32;1.33;;;20.50;96.60;;;;;;5036556;28;20021;-63
2023/09/19 10:34:35;;;;;;;6.20;1.42;;;20.70;94.60;;;;;;5032538;28;20065;-63
2023/09/19 10:37:05;;;;;;;3.22;1.13;;;20.70;92.80;;;;;;5036631;28;20026;-63
2023/09/19 10:39:33;;;;;;;5.47;1.35;;;20.80;92.80;;;;;;5028272;28;20034;-64
2023/09/19 10:42:05;;;;;;;4.07;1.23;;;20.90;92.00;;;;;;5024785;28;20014;-64
2023/09/19 10:44:32;;;;;;;4.47;1.35;;;21.10;93.90;;;;;;5035370;28;20116;-65
2023/09/19 10:46:59;;;;;;;5.85;1.58;;;21.30;90.30;;;;;;5026159;28;20033;-65
2023/09/19 10:49:25;;;;;;;3.50;1.10;;;21.50;89.90;;;;;;5029393;28;20034;-65
2023/09/19 10:51:58;;;;;;;3.60;1.30;;;21.70;89.80;;;;;;5027018;28;20029;-64
2023/09/19 10:54:28;;;;;;;4.88;1.33;;;21.80;89.20;;;;;;5030649;28;20025;-63
2023/09/19 10:56:54;;;;;;;6.90;1.48;;;21.80;87.50;;;;;;5027357;28;20049;-65
2023/09/19 10:59:21;;;;;;;4.15;1.30;;;21.80;87.40;;;;;;5031404;28;20048;-65
2023/09/19 11:01:51;;;;;;;5.03;1.30;;;21.80;87.20;;;;;;5035478;28;20021;-65
2023/09/19 11:04:26;;;;;;;3.95;1.40;;;21.80;87.00;;;;;;5033918;28;20486;-65
2023/09/19 11:07:08;;;;;;;5.53;1.60;;;21.70;79.10;;;;;;5032910;28;20029;-65
2023/09/19 11:09:58;;;;;;;2.97;1.23;;;21.70;87.30;;;;;;5035077;28;20025;-66
2023/09/19 11:15:07;;;;;;;5.10;1.38;;;21.80;88.10;;;;;;5033541;28;20046;-66
2023/09/19 11:17:45;;;;;;;7.47;1.90;;;21.90;86.20;;;;;;5054700;28;20025;-66
2023/09/19 11:22:58;;;;;;;3.38;0.95;;;22.00;82.80;;;;;;5033549;28;20084;-66
2023/09/19 11:25:30;;;;;;;5.80;1.98;;;22.00;85.10;;;;;;5035573;28;20017;-66
2023/09/19 11:28:21;;;;;;;7.20;1.67;;;21.90;82.20;;;;;;5035446;28;20084;-65
2023/09/19 11:30:48;;;;;;;7.32;1.40;;;21.90;83.50;;;;;;5031492;28;20513;-65
2023/09/19 11:33:28;;;;;;;4.70;1.60;;;21.90;77.50;;;;;;5034616;28;20029;-70
2023/09/19 11:36:11;;;;;;;4.90;1.42;;;21.80;80.80;;;;;;5035695;28;20026;-73
2023/09/19 11:38:47;;;;;;;4.70;1.50;;;21.80;80.80;;;;;;5030698;28;20022;-64
2023/09/19 11:41:39;;;;;;;5.70;1.30;;;21.90;81.80;;;;;;5030639;28;20489;-65
2023/09/19 11:44:30;;;;;;;5.13;1.52;;;22.10;84.60;;;;;;5022039;28;20036;-64
2023/09/19 11:46:58;;;;;;;5.25;1.23;;;22.10;80.80;;;;;;5031589;28;20030;-64
2023/09/19 11:49:31;;;;;;;3.88;1.38;;;22.10;75.50;;;;;;5037641;28;20056;-63
2023/09/19 11:52:00;;;;;;;6.32;1.75;;;22.10;75.60;;;;;;5039835;28;20022;-64
2023/09/19 11:54:31;;;;;;;4.85;1.60;;;22.20;74.40;;;;;;5043858;28;20041;-62
2023/09/19 11:56:58;;;;;;;3.90;1.58;;;22.30;76.30;;;;;;5038256;28;20061;-63
2023/09/19 11:59:28;;;;;;;3.17;1.48;;;22.60;74.70;;;;;;5038540;28;20340;-63
2023/09/19 12:01:59;;;;;;;6.28;1.40;;;22.80;75.50;;;;;;5026963;28;20124;-64
2023/09/19 12:04:33;;;;;;;7.65;1.58;;;22.90;72.50;;;;;;5030622;28;20013;-64
2023/09/19 12:06:59;;;;;;;6.05;1.65;;;22.90;74.60;;;;;;5036381;28;20041;-64
2023/09/19 12:09:25;;;;;;;4.38;1.77;;;22.80;70.40;;;;;;5036171;28;20018;-64
2023/09/19 12:11:51;;;;;;;4.55;1.50;;;22.90;69.00;;;;;;5031017;28;20029;-64
2023/09/19 12:14:27;;;;;;;5.05;1.27;;;22.80;70.60;;;;;;5038467;28;20562;-65
2023/09/19 12:17:00;;;;;;;5.45;1.50;;;22.80;72.30;;;;;;5032949;28;20026;-64
2023/09/19 12:19:26;;;;;;;4.97;1.65;;;22.80;73.80;;;;;;5036180;28;20033;-64
2023/09/19 12:22:05;;;;;;;4.63;1.50;;;22.80;69.60;;;;;;5033711;28;20073;-64
2023/09/19 12:24:32;;;;;;;5.22;1.75;;;22.70;73.40;;;;;;5036419;28;20033;-63
2023/09/19 12:27:06;;;;;;;4.85;1.70;;;22.70;71.60;;;;;;5040035;28;20013;-63
2023/09/19 12:29:41;;;;;;;6.30;1.85;;;22.70;71.00;;;;;;5036359;28;20029;-63
2023/09/19 12:32:07;;;;;;;4.43;1.20;;;22.60;71.10;;;;;;5039028;28;20156;-62
2023/09/19 12:34:42;;;;;;;3.90;1.30;;;22.50;70.40;;;;;;5039570;28;20061;-63
2023/09/19 12:37:21;;;;;;;3.90;1.27;;;22.40;70.30;;;;;;5038692;28;20692;-63
2023/09/19 12:39:50;;;;;;;2.38;1.08;;;22.40;72.30;;;;;;5035123;28;20014;-63
2023/09/19 12:42:19;;;;;;;4.68;1.52;;;22.40;70.90;;;;;;5034888;28;20025;-63
2023/09/19 12:44:53;;;;;;;4.55;1.60;;;22.40;71.90;;;;;;5036066;28;20025;-63
2023/09/19 12:47:23;;;;;;;3.05;1.40;;;22.30;71.90;;;;;;5029187;28;20017;-63
2023/09/19 12:50:25;;;;;;;6.28;1.80;;;22.20;71.10;;;;;;5034166;28;20479;-63
2023/09/19 12:52:53;;;;;;;3.97;1.33;;;22.10;73.50;;;;;;5057619;28;20075;-63
2023/09/19 12:55:28;;;;;;;4.43;1.35;;;22.20;72.50;;;;;;5030284;28;20030;-64
2023/09/19 12:58:15;;;;;;;4.80;1.25;;;22.30;74.10;;;;;;5035427;28;20128;-63
2023/09/19 13:00:45;;;;;;;3.25;1.42;;;22.30;72.90;;;;;;5036041;28;20112;-63
2023/09/19 13:03:15;;;;;;;6.03;1.70;;;22.30;72.70;;;;;;5032879;28;20468;-63
2023/09/19 13:05:55;;;;;;;4.45;1.38;;;22.20;71.90;;;;;;5033898;28;20093;-64
2023/09/19 13:08:26;;;;;;;4.95;1.90;;;22.20;71.60;;;;;;5037818;28;20112;-64